createdAt,value
2023-01-15T00:02:20.624Z,7.80
2023-01-15T00:04:51.851Z,9.10
2023-01-15T00:07:20.616Z,7.10
2023-01-15T00:09:50.838Z,6.70
2023-01-15T00:12:19.238Z,6.60
2023-01-15T00:14:47.618Z,6.20
2023-01-15T00:17:16.070Z,6.70
2023-01-15T00:19:44.616Z,6.50
2023-01-15T00:22:13.021Z,6.90
2023-01-15T00:25:00.338Z,6.50
2023-01-15T00:27:40.519Z,6.20
2023-01-15T00:30:13.921Z,7.50
2023-01-15T00:32:43.619Z,8.90
2023-01-15T00:35:20.771Z,7.80
2023-01-15T00:37:49.935Z,6.70
2023-01-15T00:40:20.404Z,9.10
2023-01-15T00:42:54.400Z,9.80
2023-01-15T00:45:23.912Z,7.50
2023-01-15T00:47:52.650Z,6.70
2023-01-15T00:50:21.734Z,7.70
2023-01-15T00:52:50.241Z,6.60
2023-01-15T00:55:18.652Z,6.00
2023-01-15T00:57:47.345Z,6.20
2023-01-15T01:00:16.372Z,7.90
2023-01-15T01:02:44.877Z,6.20
2023-01-15T01:05:13.847Z,5.00
2023-01-15T01:07:42.317Z,6.90
2023-01-15T01:10:11.074Z,4.30
2023-01-15T01:12:39.790Z,3.60
2023-01-15T01:15:10.252Z,4.60
2023-01-15T01:17:39.302Z,4.20
2023-01-15T01:20:08.315Z,4.20
2023-01-15T01:22:40.480Z,3.80
2023-01-15T01:25:09.186Z,5.20
2023-01-15T01:27:37.361Z,6.30
2023-01-15T01:30:06.373Z,5.20
2023-01-15T01:32:34.652Z,4.30
2023-01-15T01:35:03.076Z,3.50
2023-01-15T01:37:32.248Z,3.80
2023-01-15T01:40:01.697Z,3.30
2023-01-15T01:42:32.401Z,4.70
2023-01-15T01:45:09.936Z,4.10
2023-01-15T01:47:39.046Z,4.40
2023-01-15T01:50:12.943Z,3.90
2023-01-15T01:52:56.637Z,3.90
2023-01-15T01:55:27.103Z,3.60
2023-01-15T01:57:59.523Z,3.60
2023-01-15T02:00:30.318Z,3.80
2023-01-15T02:03:00.032Z,3.40
2023-01-15T02:05:32.919Z,3.90
2023-01-15T02:08:01.434Z,3.20
2023-01-15T02:10:29.822Z,3.40
2023-01-15T02:13:04.376Z,4.10
2023-01-15T02:15:37.662Z,4.20
2023-01-15T02:18:30.116Z,3.00
2023-01-15T02:21:11.463Z,3.90
2023-01-15T02:23:45.658Z,4.90
2023-01-15T02:26:42.896Z,3.80
2023-01-15T02:29:17.937Z,3.10
2023-01-15T02:31:51.675Z,3.00
2023-01-15T02:34:26.200Z,2.90
2023-01-15T02:37:33.730Z,4.60
2023-01-15T02:40:04.849Z,3.10
2023-01-15T02:42:34.995Z,3.20
2023-01-15T02:45:06.184Z,3.40
2023-01-15T02:47:38.749Z,4.60
2023-01-15T02:50:11.301Z,4.10
2023-01-15T02:52:45.529Z,3.60
2023-01-15T02:55:22.338Z,4.70
2023-01-15T02:57:53.832Z,4.70
2023-01-15T03:00:26.082Z,3.90
2023-01-15T03:03:10.235Z,3.10
2023-01-15T03:05:53.286Z,4.00
2023-01-15T03:08:21.778Z,3.10
2023-01-15T03:11:09.766Z,4.30
2023-01-15T03:13:48.673Z,3.90
2023-01-15T03:16:35.719Z,3.10
2023-01-15T03:19:20.888Z,3.50
2023-01-15T03:21:56.976Z,5.30
2023-01-15T03:24:33.951Z,5.70
2023-01-15T03:27:02.618Z,4.30
2023-01-15T03:29:42.524Z,3.50
2023-01-15T03:32:11.085Z,4.00
2023-01-15T03:34:50.270Z,4.10
2023-01-15T03:37:21.302Z,3.80
2023-01-15T03:39:50.626Z,2.90
2023-01-15T03:42:18.871Z,2.70
2023-01-15T03:45:01.001Z,3.80
2023-01-15T03:47:53.316Z,2.80
2023-01-15T03:50:42.232Z,2.80
2023-01-15T03:53:32.407Z,3.70
2023-01-15T03:56:09.793Z,3.80
2023-01-15T03:58:46.415Z,2.50
2023-01-15T04:01:19.211Z,2.60
2023-01-15T04:03:50.283Z,2.00
2023-01-15T04:06:19.245Z,3.30
2023-01-15T04:08:48.360Z,4.70
2023-01-15T04:11:24.707Z,3.20
2023-01-15T04:13:54.723Z,2.40
2023-01-15T04:16:28.893Z,2.90
2023-01-15T04:18:57.452Z,2.80
2023-01-15T04:21:25.706Z,2.80
2023-01-15T04:23:54.031Z,3.20
2023-01-15T04:26:22.609Z,2.90
2023-01-15T04:28:52.287Z,3.70
2023-01-15T04:31:21.047Z,2.30
2023-01-15T04:33:49.361Z,2.50
2023-01-15T04:36:17.628Z,4.10
2023-01-15T04:38:46.078Z,2.60
2023-01-15T04:41:33.090Z,2.80
2023-01-15T04:44:07.619Z,3.00
2023-01-15T04:46:39.587Z,3.30
2023-01-15T04:49:12.622Z,1.80
2023-01-15T04:51:41.292Z,2.30
2023-01-15T04:54:10.987Z,3.50
2023-01-15T04:56:42.179Z,3.10
2023-01-15T04:59:11.727Z,3.60
2023-01-15T05:01:42.787Z,3.20
2023-01-15T05:04:14.895Z,3.40
2023-01-15T05:06:43.399Z,3.00
2023-01-15T05:09:11.972Z,2.60
2023-01-15T05:11:41.022Z,3.40
2023-01-15T05:14:09.522Z,2.20
2023-01-15T05:16:38.889Z,2.30
2023-01-15T05:19:10.330Z,2.50
2023-01-15T05:21:42.540Z,3.40
2023-01-15T05:24:14.939Z,2.90
2023-01-15T05:26:44.345Z,2.20
2023-01-15T05:29:13.700Z,2.60
2023-01-15T05:31:45.528Z,2.50
2023-01-15T05:34:14.221Z,2.60
2023-01-15T05:36:42.751Z,2.00
2023-01-15T05:39:11.502Z,3.40
2023-01-15T05:41:49.422Z,2.80
2023-01-15T05:44:29.671Z,3.40
2023-01-15T05:47:02.748Z,2.10
2023-01-15T05:49:31.620Z,2.20
2023-01-15T05:52:01.896Z,2.90
2023-01-15T05:54:33.750Z,2.70
2023-01-15T05:57:03.157Z,2.30
2023-01-15T05:59:33.739Z,3.40
2023-01-15T06:02:02.381Z,2.60
2023-01-15T06:04:30.962Z,2.70
2023-01-15T06:06:59.761Z,4.50
2023-01-15T06:09:29.873Z,3.90
2023-01-15T06:11:59.249Z,2.60
2023-01-15T06:14:28.606Z,2.40
2023-01-15T06:16:57.007Z,2.00
2023-01-15T06:19:25.352Z,2.60
2023-01-15T06:21:54.025Z,1.90
2023-01-15T06:24:23.431Z,2.70
2023-01-15T06:26:52.675Z,2.60
2023-01-15T06:29:21.066Z,2.40
2023-01-15T06:31:49.817Z,2.40
2023-01-15T06:34:18.310Z,2.50
2023-01-15T06:36:46.624Z,2.00
2023-01-15T06:39:15.083Z,3.70
2023-01-15T06:42:02.081Z,2.10
2023-01-15T06:44:49.338Z,2.20
2023-01-15T06:47:22.283Z,2.40
2023-01-15T06:49:56.435Z,2.60
2023-01-15T06:52:26.903Z,2.70
2023-01-15T06:54:56.169Z,2.60
2023-01-15T06:57:24.897Z,2.40
2023-01-15T06:59:54.144Z,2.50
2023-01-15T07:02:22.962Z,2.20
2023-01-15T07:04:52.294Z,2.30
2023-01-15T07:07:22.894Z,1.80
2023-01-15T07:09:51.549Z,1.70
2023-01-15T07:12:20.703Z,1.90
2023-01-15T07:14:49.121Z,2.60
2023-01-15T07:17:17.479Z,3.10
2023-01-15T07:19:47.103Z,6.30
2023-01-15T07:22:15.852Z,12.70
2023-01-15T07:24:45.067Z,2.30
2023-01-15T07:27:14.244Z,4.10
2023-01-15T07:29:42.520Z,2.50
2023-01-15T07:32:12.556Z,3.40
2023-01-15T07:34:43.997Z,3.80
2023-01-15T07:37:12.575Z,3.20
2023-01-15T07:39:41.422Z,3.10
2023-01-15T07:42:46.319Z,4.10
2023-01-15T07:45:33.398Z,3.10
2023-01-15T07:48:20.330Z,3.20
2023-01-15T07:50:48.629Z,2.40
2023-01-15T07:53:19.975Z,2.60
2023-01-15T07:55:48.965Z,2.30
2023-01-15T07:58:17.300Z,2.90
2023-01-15T08:00:45.569Z,1.90
2023-01-15T08:03:15.269Z,3.30
2023-01-15T08:05:43.613Z,3.30
2023-01-15T08:08:18.565Z,3.20
2023-01-15T08:11:05.578Z,3.00
2023-01-15T08:13:52.426Z,2.20
2023-01-15T08:16:20.949Z,2.50
2023-01-15T08:18:50.055Z,2.40
2023-01-15T08:21:18.480Z,2.30
2023-01-15T08:23:47.865Z,2.60
2023-01-15T08:26:16.845Z,2.60
2023-01-15T08:28:45.062Z,3.70
2023-01-15T08:31:16.537Z,3.80
2023-01-15T08:33:44.833Z,3.30
2023-01-15T08:36:13.254Z,2.80
2023-01-15T08:38:41.534Z,3.10
2023-01-15T08:41:10.072Z,3.20
2023-01-15T08:43:38.544Z,3.40
2023-01-15T08:46:07.116Z,2.90
2023-01-15T08:48:38.211Z,3.20
2023-01-15T08:51:08.962Z,3.20
2023-01-15T08:53:41.495Z,3.80
2023-01-15T08:56:16.828Z,3.30
2023-01-15T08:58:46.171Z,4.50
2023-01-15T09:01:16.348Z,3.50
2023-01-15T09:03:44.991Z,4.90
2023-01-15T09:06:13.978Z,4.00
2023-01-15T09:08:42.641Z,4.50
2023-01-15T09:11:13.286Z,4.10
2023-01-15T09:13:44.239Z,2.40
2023-01-15T09:16:13.299Z,3.60
2023-01-15T09:18:41.800Z,5.20
2023-01-15T09:21:10.841Z,3.20
2023-01-15T09:23:39.359Z,3.20
2023-01-15T09:26:08.335Z,2.90
2023-01-15T09:28:36.651Z,3.40
2023-01-15T09:31:04.963Z,2.80
2023-01-15T09:33:33.828Z,3.90
2023-01-15T09:36:02.139Z,3.50
2023-01-15T09:38:30.493Z,3.00
2023-01-15T09:41:07.677Z,3.40
2023-01-15T09:44:01.022Z,3.90
2023-01-15T09:46:40.643Z,4.80
2023-01-15T09:49:27.122Z,4.30
2023-01-15T09:52:19.890Z,7.50
2023-01-15T09:55:00.835Z,3.40
2023-01-15T09:57:30.831Z,3.40
2023-01-15T10:00:03.180Z,1.30
2023-01-15T10:02:40.524Z,0.90
2023-01-15T10:05:20.109Z,1.50
2023-01-15T10:07:59.292Z,1.80
2023-01-15T10:10:34.271Z,1.90
2023-01-15T10:13:15.396Z,2.20
2023-01-15T10:15:48.426Z,3.50
2023-01-15T10:18:25.119Z,2.80
2023-01-15T10:21:18.433Z,2.20
2023-01-15T10:23:58.514Z,2.70
2023-01-15T10:26:40.869Z,2.70
2023-01-15T10:29:42.553Z,4.10
2023-01-15T10:33:03.322Z,6.90
2023-01-15T10:35:49.833Z,11.00
2023-01-15T10:38:30.223Z,6.80
2023-01-15T10:41:21.128Z,6.80
2023-01-15T10:43:59.654Z,4.50
2023-01-15T10:46:33.865Z,5.80
2023-01-15T10:49:20.464Z,8.90
2023-01-15T10:51:56.837Z,10.40
2023-01-15T10:54:49.889Z,6.50
2023-01-15T10:58:11.296Z,4.80
2023-01-15T11:00:43.639Z,4.80
2023-01-15T11:03:19.897Z,3.30
2023-01-15T11:05:48.080Z,4.60
2023-01-15T11:09:08.691Z,4.70
2023-01-15T11:11:54.804Z,3.00
2023-01-15T11:15:31.238Z,4.30
2023-01-15T11:18:30.552Z,3.30
2023-01-15T11:20:59.112Z,4.20
2023-01-15T11:23:27.711Z,4.00
2023-01-15T11:25:58.600Z,4.60
2023-01-15T11:28:43.435Z,3.80
2023-01-15T11:31:13.208Z,5.00
2023-01-15T11:33:46.426Z,5.20
2023-01-15T11:36:24.691Z,3.90
2023-01-15T11:38:53.610Z,4.30
2023-01-15T11:41:50.983Z,5.10
2023-01-15T11:44:41.233Z,4.60
2023-01-15T11:47:33.400Z,4.90
2023-01-15T11:50:20.692Z,5.30
2023-01-15T11:52:56.422Z,5.00
2023-01-15T11:55:27.443Z,4.00
2023-01-15T11:57:57.644Z,4.30
2023-01-15T12:00:30.717Z,4.20
2023-01-15T12:03:13.243Z,3.40
2023-01-15T12:05:50.399Z,3.40
2023-01-15T12:08:52.419Z,2.10
2023-01-15T12:12:08.466Z,2.90
2023-01-15T12:14:53.175Z,2.90
2023-01-15T12:17:39.599Z,3.30
2023-01-15T12:20:23.466Z,8.50
2023-01-15T12:23:13.153Z,6.70
2023-01-15T12:25:56.883Z,4.40
2023-01-15T12:28:32.341Z,3.70
2023-01-15T12:31:11.991Z,3.80
2023-01-15T12:33:53.516Z,4.10
2023-01-15T12:36:38.473Z,4.70
2023-01-15T12:39:26.846Z,2.50
2023-01-15T12:42:18.258Z,2.70
2023-01-15T12:45:08.201Z,3.10
2023-01-15T12:47:41.239Z,2.30
2023-01-15T12:50:29.478Z,3.40
2023-01-15T12:53:06.280Z,4.20
2023-01-15T12:55:40.438Z,3.70
2023-01-15T12:58:19.531Z,3.20
2023-01-15T13:00:49.951Z,4.10
2023-01-15T13:03:27.406Z,8.00
2023-01-15T13:06:02.646Z,7.80
2023-01-15T13:08:39.486Z,18.10
2023-01-15T13:11:12.636Z,4.80
2023-01-15T13:13:58.420Z,4.70
2023-01-15T13:16:45.599Z,4.30
2023-01-15T13:19:40.226Z,5.50
2023-01-15T13:22:17.886Z,5.20
2023-01-15T13:25:29.646Z,5.50
2023-01-15T13:28:08.990Z,6.80
2023-01-15T13:30:54.170Z,4.80
2023-01-15T13:33:46.893Z,3.20
2023-01-15T13:36:29.084Z,3.90
2023-01-15T13:39:03.753Z,4.90
2023-01-15T13:41:53.183Z,5.50
2023-01-15T13:44:29.695Z,4.90
2023-01-15T13:47:11.767Z,4.70
2023-01-15T13:49:49.146Z,5.20
2023-01-15T13:52:32.487Z,5.40
2023-01-15T13:55:22.807Z,3.20
2023-01-15T13:57:51.367Z,2.80
2023-01-15T14:00:36.510Z,5.70
2023-01-15T14:03:43.414Z,3.40
2023-01-15T14:06:11.896Z,3.40
2023-01-15T14:08:44.059Z,3.70
2023-01-15T14:11:37.560Z,4.10
2023-01-15T14:14:35.227Z,3.90
2023-01-15T14:17:41.293Z,3.90
2023-01-15T14:20:34.628Z,7.30
2023-01-15T14:23:30.224Z,4.60
2023-01-15T14:26:19.325Z,3.80
2023-01-15T14:29:29.667Z,4.00
2023-01-15T14:32:22.479Z,4.00
2023-01-15T14:35:00.578Z,4.60
2023-01-15T14:37:40.464Z,4.50
2023-01-15T14:40:20.241Z,5.40
2023-01-15T14:43:05.070Z,4.50
2023-01-15T14:45:36.713Z,5.50
2023-01-15T14:48:26.680Z,6.70
2023-01-15T14:51:08.083Z,7.30
2023-01-15T14:53:45.335Z,6.70
2023-01-15T14:56:14.373Z,5.10
2023-01-15T14:59:00.039Z,5.50
2023-01-15T15:01:52.708Z,6.50
2023-01-15T15:07:41.669Z,4.40
2023-01-15T15:10:31.921Z,4.10
2023-01-15T15:13:13.954Z,5.10
2023-01-15T15:16:13.267Z,5.60
2023-01-15T15:18:49.113Z,5.20
2023-01-15T15:21:26.524Z,6.40
2023-01-15T15:24:07.991Z,10.50
2023-01-15T15:26:38.356Z,6.30
2023-01-15T15:29:11.411Z,7.50
2023-01-15T15:31:45.729Z,5.00
2023-01-15T15:34:41.057Z,11.10
2023-01-15T15:37:19.212Z,9.80
2023-01-15T15:40:00.746Z,15.60
2023-01-15T15:42:53.840Z,6.10
2023-01-15T15:45:47.318Z,5.50
2023-01-15T15:48:39.078Z,5.90
2023-01-15T15:51:35.211Z,8.40
2023-01-15T15:54:31.202Z,10.20
2023-01-15T15:57:14.413Z,9.70
2023-01-15T15:59:50.909Z,10.80
2023-01-15T16:02:26.395Z,8.50
2023-01-15T16:04:59.090Z,9.70
2023-01-15T16:07:33.814Z,8.30
2023-01-15T16:10:35.397Z,12.10
2023-01-15T16:13:06.954Z,8.60
2023-01-15T16:15:40.111Z,7.60
2023-01-15T16:18:29.665Z,5.80
2023-01-15T16:20:58.858Z,8.30
2023-01-15T16:23:30.144Z,6.90
2023-01-15T16:26:30.702Z,8.30
2023-01-15T16:29:02.889Z,6.90
2023-01-15T16:31:38.453Z,6.20
2023-01-15T16:34:08.167Z,7.50
2023-01-15T16:36:42.807Z,7.10
2023-01-15T16:39:35.764Z,7.30
2023-01-15T16:42:05.303Z,8.50
2023-01-15T16:45:04.875Z,7.70
2023-01-15T16:47:35.502Z,8.90
2023-01-15T16:50:22.686Z,9.90
2023-01-15T16:52:54.166Z,7.90
2023-01-15T16:55:36.920Z,7.20
2023-01-15T16:58:17.285Z,6.80
2023-01-15T17:00:48.223Z,8.00
2023-01-15T17:03:25.321Z,8.40
2023-01-15T17:06:12.413Z,7.60
2023-01-15T17:08:47.628Z,6.80
2023-01-15T17:11:30.955Z,7.80
2023-01-15T17:14:22.999Z,7.60
2023-01-15T17:17:18.861Z,8.30
2023-01-15T17:19:47.292Z,8.30
2023-01-15T17:22:24.835Z,7.50
2023-01-15T17:25:25.312Z,9.00
2023-01-15T17:27:57.507Z,6.70
2023-01-15T17:30:31.498Z,7.40
2023-01-15T17:33:20.837Z,6.90
2023-01-15T17:35:49.768Z,7.30
2023-01-15T17:38:19.172Z,8.70
2023-01-15T17:40:51.049Z,8.40
2023-01-15T17:43:19.753Z,7.90
2023-01-15T17:45:48.339Z,7.80
2023-01-15T17:48:21.265Z,7.80
2023-01-15T17:50:49.459Z,8.70
2023-01-15T17:53:21.116Z,9.10
2023-01-15T17:56:08.455Z,8.10
2023-01-15T17:58:55.498Z,7.10
2023-01-15T18:01:45.055Z,8.80
2023-01-15T18:04:42.362Z,7.70
2023-01-15T18:07:12.490Z,9.20
2023-01-15T18:09:42.847Z,7.80
2023-01-15T18:12:11.384Z,9.10
2023-01-15T18:14:40.138Z,10.50
2023-01-15T18:17:09.548Z,10.20
2023-01-15T18:19:43.356Z,18.10
2023-01-15T18:22:14.961Z,10.80
2023-01-15T18:24:45.247Z,7.90
2023-01-15T18:27:15.052Z,7.10
2023-01-15T18:30:14.249Z,12.60
2023-01-15T18:32:46.913Z,8.30
2023-01-15T18:35:19.824Z,9.40
2023-01-15T18:38:03.049Z,6.60
2023-01-15T18:40:37.583Z,5.80
2023-01-15T18:43:28.148Z,8.10
2023-01-15T18:46:17.089Z,6.90
2023-01-15T18:49:06.560Z,9.60
2023-01-15T18:51:41.315Z,7.50
2023-01-15T18:54:13.335Z,7.10
2023-01-15T18:56:46.670Z,7.90
2023-01-15T18:59:15.835Z,6.50
2023-01-15T19:01:44.208Z,7.90
2023-01-15T19:04:12.585Z,10.00
2023-01-15T19:06:41.308Z,11.90
2023-01-15T19:09:14.154Z,9.30
2023-01-15T19:11:44.130Z,8.20
2023-01-15T19:14:31.448Z,6.90
2023-01-15T19:17:18.704Z,7.00
2023-01-15T19:19:47.111Z,6.10
2023-01-15T19:22:33.944Z,7.70
2023-01-15T19:25:02.567Z,7.20
2023-01-15T19:27:31.279Z,8.50
2023-01-15T19:30:00.583Z,7.30
2023-01-15T19:32:29.130Z,8.10
2023-01-15T19:34:58.481Z,7.30
2023-01-15T19:37:28.332Z,9.60
2023-01-15T19:39:56.819Z,9.30
2023-01-15T19:42:44.818Z,8.00
2023-01-15T19:45:32.201Z,6.50
2023-01-15T19:48:19.539Z,6.80
2023-01-15T19:50:48.160Z,7.60
2023-01-15T19:53:19.908Z,6.20
2023-01-15T19:55:48.828Z,9.40
2023-01-15T19:58:17.464Z,6.70
2023-01-15T20:00:50.539Z,6.20
2023-01-15T20:03:28.840Z,7.30
2023-01-15T20:05:58.291Z,11.10
2023-01-15T20:08:27.749Z,12.20
2023-01-15T20:10:56.731Z,7.60
2023-01-15T20:13:43.662Z,11.10
2023-01-15T20:16:15.555Z,9.10
2023-01-15T20:18:44.398Z,5.30
2023-01-15T20:21:14.805Z,7.10
2023-01-15T20:23:46.616Z,5.50
2023-01-15T20:26:15.722Z,11.60
2023-01-15T20:28:47.843Z,6.80
2023-01-15T20:31:19.565Z,8.10
2023-01-15T20:33:48.153Z,7.90
2023-01-15T20:36:16.863Z,5.80
2023-01-15T20:38:49.030Z,7.00
2023-01-15T20:41:38.365Z,5.00
2023-01-15T20:44:25.704Z,6.40
2023-01-15T20:46:54.547Z,5.20
2023-01-15T20:49:29.045Z,5.00
2023-01-15T20:51:58.283Z,5.40
2023-01-15T20:54:26.876Z,5.90
2023-01-15T20:56:55.485Z,4.90
2023-01-15T20:59:23.926Z,8.00
2023-01-15T21:01:54.819Z,5.90
2023-01-15T21:04:24.758Z,5.90
2023-01-15T21:06:54.819Z,7.00
2023-01-15T21:09:22.980Z,5.50
2023-01-15T21:11:51.596Z,5.70
2023-01-15T21:14:20.085Z,4.90
2023-01-15T21:16:51.944Z,7.40
2023-01-15T21:19:21.602Z,5.40
2023-01-15T21:21:50.325Z,4.60
2023-01-15T21:24:19.405Z,4.20
2023-01-15T21:26:49.044Z,3.70
2023-01-15T21:29:17.752Z,5.00
2023-01-15T21:31:46.466Z,3.90
2023-01-15T21:34:15.917Z,5.40
2023-01-15T21:36:47.741Z,4.70
2023-01-15T21:39:18.791Z,3.90
2023-01-15T21:42:09.016Z,4.20
2023-01-15T21:44:45.111Z,5.20
2023-01-15T21:47:16.390Z,4.40
2023-01-15T21:49:46.328Z,3.00
2023-01-15T21:52:17.953Z,5.30
2023-01-15T21:54:50.373Z,3.00
2023-01-15T21:57:22.709Z,3.60
2023-01-15T21:59:51.704Z,3.10
2023-01-15T22:02:22.239Z,4.40
2023-01-15T22:04:50.756Z,4.40
2023-01-15T22:07:19.192Z,2.80
2023-01-15T22:09:47.739Z,3.00
2023-01-15T22:12:16.137Z,3.60
2023-01-15T22:14:44.731Z,3.30
2023-01-15T22:17:13.523Z,3.80
2023-01-15T22:19:42.245Z,2.50
2023-01-15T22:22:11.737Z,2.60
2023-01-15T22:24:41.406Z,2.60
2023-01-15T22:27:14.504Z,2.40
2023-01-15T22:29:44.156Z,2.80
2023-01-15T22:32:15.354Z,2.20
2023-01-15T22:34:44.022Z,2.70
2023-01-15T22:37:15.706Z,2.80
2023-01-15T22:39:44.222Z,4.10
2023-01-15T22:42:24.644Z,2.30
2023-01-15T22:44:53.544Z,2.90
2023-01-15T22:47:23.316Z,4.80
2023-01-15T22:49:51.986Z,3.20
2023-01-15T22:52:21.634Z,2.20
2023-01-15T22:54:50.338Z,3.20
2023-01-15T22:57:18.942Z,2.70
2023-01-15T22:59:47.423Z,2.00
2023-01-15T23:02:16.104Z,3.50
2023-01-15T23:04:44.880Z,2.70
2023-01-15T23:07:13.334Z,2.40
2023-01-15T23:09:41.903Z,4.40
2023-01-15T23:12:10.221Z,2.40
2023-01-15T23:14:39.077Z,2.80
2023-01-15T23:17:07.388Z,2.50
2023-01-15T23:19:35.869Z,2.70
2023-01-15T23:22:05.386Z,3.00
2023-01-15T23:24:33.825Z,2.60
2023-01-15T23:27:02.323Z,2.90
2023-01-15T23:29:30.685Z,2.80
2023-01-15T23:31:58.804Z,2.20
2023-01-15T23:34:27.300Z,4.40
2023-01-15T23:36:55.754Z,2.80
2023-01-15T23:39:24.341Z,3.80
2023-01-15T23:42:11.093Z,2.10
2023-01-15T23:44:58.342Z,2.80
2023-01-15T23:47:26.606Z,3.20
2023-01-15T23:49:54.931Z,3.00
2023-01-15T23:52:23.196Z,2.50
2023-01-15T23:54:51.564Z,2.40
2023-01-15T23:57:19.787Z,2.30
2023-01-15T23:59:48.740Z,2.40
